CheckWX is a tool to help pilots better visualize weather data.  It is not intended as a substitute for an official pre-flight weather briefing.

15:07:22 UTC

EPRZ METAR
Rzeszów-Jasionka Airport
Rzeszów, Poland
Current

37 mins ago

EPRZ 121430Z 31009KT 9999 SCT046 19/08 Q1023
Observed
Jul-12 @ 14:30 UTC
Wind
  • 310° at 9 KTS
Visibility
10,000+ meters
Flight Rules
VFR
Cloud Levels
  • Scattered at 4,600' AGL
Temperature
19°C / 66°F
Dewpoint
C / 46°F
Humidity
49%
Altimeter
30.21" Hg
Pressure
1022.92 hPa
Previous

1 hour ago

EPRZ 121400Z 33010KT 310V020 9999 SCT046 20/10 Q1023
Observed
Jul-12 @ 14:00 UTC
Wind
  • 330° at 10 KTS
Visibility
10,000+ meters
Flight Rules
VFR
Cloud Levels
  • Scattered at 4,600' AGL
Temperature
20°C / 68°F
Dewpoint
10°C / 50°F
Humidity
53%
Altimeter
30.21" Hg
Pressure
1022.92 hPa
Previous

2 hours ago

EPRZ 121330Z 33010KT 9999 SCT046 18/09 Q1023
Observed
Jul-12 @ 13:30 UTC
Wind
  • 330° at 10 KTS
Visibility
10,000+ meters
Flight Rules
VFR
Cloud Levels
  • Scattered at 4,600' AGL
Temperature
18°C / 64°F
Dewpoint
C / 48°F
Humidity
56%
Altimeter
30.21" Hg
Pressure
1022.92 hPa